createdAt,value
2022-08-28T00:02:17.709Z,21
2022-08-28T00:04:17.793Z,20
2022-08-28T00:06:17.748Z,20
2022-08-28T00:08:17.749Z,22
2022-08-28T00:10:17.738Z,23
2022-08-28T00:13:17.740Z,22
2022-08-28T00:16:17.785Z,21
2022-08-28T00:19:17.756Z,20
2022-08-28T00:22:17.722Z,19
2022-08-28T00:24:17.781Z,19
2022-08-28T00:27:18.415Z,24
2022-08-28T00:29:17.738Z,20
2022-08-28T00:32:17.725Z,23
2022-08-28T00:34:17.776Z,19
2022-08-28T00:37:17.735Z,21
2022-08-28T00:40:17.766Z,21
2022-08-28T00:42:17.757Z,21
2022-08-28T00:44:17.757Z,20
2022-08-28T00:47:17.727Z,21
2022-08-28T00:49:17.773Z,21
2022-08-28T00:51:17.768Z,22
2022-08-28T00:53:17.783Z,21
2022-08-28T00:56:17.763Z,21
2022-08-28T00:59:17.842Z,22
2022-08-28T01:01:17.845Z,20
2022-08-28T01:04:17.765Z,21
2022-08-28T01:07:17.728Z,22
2022-08-28T01:09:18.854Z,23
2022-08-28T01:11:17.784Z,23
2022-08-28T01:14:17.747Z,24
2022-08-28T01:17:17.741Z,18
2022-08-28T01:19:17.781Z,24
2022-08-28T01:21:20.318Z,21
2022-08-28T01:23:17.770Z,26
2022-08-28T01:25:17.828Z,23
2022-08-28T01:28:17.768Z,23
2022-08-28T01:30:17.809Z,24
2022-08-28T01:33:17.761Z,25
2022-08-28T01:36:17.728Z,21
2022-08-28T01:38:20.283Z,22
2022-08-28T01:41:17.749Z,24
2022-08-28T01:44:18.041Z,21
2022-08-28T01:46:17.836Z,25
2022-08-28T01:49:17.791Z,22
2022-08-28T01:51:20.449Z,23
2022-08-28T01:54:17.768Z,25
2022-08-28T01:56:17.761Z,23
2022-08-28T01:58:17.772Z,24
2022-08-28T02:00:17.802Z,22
2022-08-28T02:03:17.770Z,22
2022-08-28T02:06:17.788Z,22
2022-08-28T02:08:17.776Z,22
2022-08-28T02:10:17.809Z,23
2022-08-28T02:12:17.801Z,24
2022-08-28T02:15:17.785Z,25
2022-08-28T02:18:17.779Z,22
2022-08-28T02:21:17.770Z,25
2022-08-28T02:24:17.790Z,27
2022-08-28T02:26:17.772Z,22
2022-08-28T02:29:17.794Z,26
2022-08-28T02:32:17.766Z,24
2022-08-28T02:34:17.810Z,26
2022-08-28T02:37:17.772Z,28
2022-08-28T02:39:17.777Z,23
2022-08-28T02:41:17.794Z,28
2022-08-28T02:43:17.790Z,27
2022-08-28T02:45:17.811Z,23
2022-08-28T02:48:18.009Z,27
2022-08-28T02:51:17.818Z,26
2022-08-28T02:54:18.505Z,25
2022-08-28T02:57:17.773Z,26
2022-08-28T03:00:17.803Z,27
2022-08-28T03:03:17.790Z,26
2022-08-28T03:06:17.811Z,24
2022-08-28T03:08:17.803Z,25
2022-08-28T03:10:17.818Z,24
2022-08-28T03:13:22.966Z,23
2022-08-28T03:15:17.815Z,30
2022-08-28T03:18:17.790Z,26
2022-08-28T03:20:17.822Z,33
2022-08-28T03:22:17.783Z,27
2022-08-28T03:24:17.818Z,23
2022-08-28T03:27:17.773Z,27
2022-08-28T03:30:17.843Z,24
2022-08-28T03:33:17.816Z,26
2022-08-28T03:36:17.808Z,22
2022-08-28T03:38:17.798Z,23
2022-08-28T03:40:17.922Z,23
2022-08-28T03:43:17.803Z,23
2022-08-28T03:45:17.801Z,22
2022-08-28T03:48:17.804Z,20
2022-08-28T03:50:17.804Z,21
2022-08-28T03:53:17.813Z,22
2022-08-28T03:56:17.802Z,24
2022-08-28T03:58:18.876Z,22
2022-08-28T04:00:17.852Z,20
2022-08-28T04:02:17.794Z,22
2022-08-28T04:05:17.823Z,25
2022-08-28T04:07:17.844Z,20
2022-08-28T04:10:17.805Z,19
2022-08-28T04:12:17.805Z,20
2022-08-28T04:15:17.822Z,22
2022-08-28T04:17:17.816Z,21
2022-08-28T04:20:17.839Z,20
2022-08-28T04:23:17.801Z,21
2022-08-28T04:26:17.824Z,21
2022-08-28T04:29:17.799Z,21
2022-08-28T04:31:17.934Z,18
2022-08-28T04:34:17.824Z,17
2022-08-28T04:36:17.848Z,18
2022-08-28T04:38:17.842Z,20
2022-08-28T04:41:17.827Z,20
2022-08-28T04:43:17.868Z,19
2022-08-28T04:46:17.889Z,22
2022-08-28T04:48:17.991Z,25
2022-08-28T04:51:17.845Z,18
2022-08-28T04:53:17.840Z,19
2022-08-28T04:56:17.847Z,21
2022-08-28T04:58:17.834Z,14
2022-08-28T05:01:17.855Z,18
2022-08-28T05:03:17.827Z,20
2022-08-28T05:05:17.815Z,16
2022-08-28T05:08:17.851Z,17
2022-08-28T05:10:17.838Z,21
2022-08-28T05:12:17.866Z,18
2022-08-28T05:15:17.820Z,20
2022-08-28T05:18:17.866Z,19
2022-08-28T05:21:17.840Z,15
2022-08-28T05:24:17.898Z,18
2022-08-28T05:27:17.843Z,19
2022-08-28T05:29:17.843Z,18
2022-08-28T05:31:17.917Z,18
2022-08-28T05:33:17.877Z,17
2022-08-28T05:36:17.877Z,18
2022-08-28T05:39:17.843Z,16
2022-08-28T05:44:17.888Z,17
2022-08-28T05:46:17.907Z,19
2022-08-28T05:48:17.903Z,21
2022-08-28T05:51:17.844Z,19
2022-08-28T05:53:17.909Z,17
2022-08-28T05:56:17.860Z,19
2022-08-28T05:58:17.899Z,17
2022-08-28T06:01:17.861Z,19
2022-08-28T06:03:17.893Z,15
2022-08-28T06:06:17.841Z,19
2022-08-28T06:08:17.885Z,17
2022-08-28T06:11:17.834Z,17
2022-08-28T06:13:17.861Z,19
2022-08-28T06:16:17.894Z,17
2022-08-28T06:19:17.838Z,19
2022-08-28T06:21:50.271Z,17
2022-08-28T06:24:17.868Z,16
2022-08-28T06:27:17.835Z,20
2022-08-28T06:29:17.908Z,19
2022-08-28T06:33:18.289Z,18
2022-08-28T06:36:17.871Z,19
2022-08-28T06:38:17.903Z,18
2022-08-28T06:41:17.900Z,17
2022-08-28T06:43:17.877Z,22
2022-08-28T06:46:17.912Z,14
2022-08-28T06:48:17.872Z,16
2022-08-28T06:51:17.865Z,20
2022-08-28T06:53:17.900Z,18
2022-08-28T06:56:25.795Z,19
2022-08-28T06:59:17.866Z,17
2022-08-28T07:01:17.932Z,18
2022-08-28T07:03:17.908Z,17
2022-08-28T07:06:17.896Z,20
2022-08-28T07:08:17.873Z,16
2022-08-28T07:11:17.894Z,18
2022-08-28T07:13:17.876Z,21
2022-08-28T07:16:17.940Z,19
2022-08-28T07:19:17.863Z,18
2022-08-28T07:21:17.948Z,16
2022-08-28T07:24:17.938Z,20
2022-08-28T07:27:19.086Z,16
2022-08-28T07:30:17.909Z,17
2022-08-28T07:33:17.884Z,14
2022-08-28T07:35:17.887Z,18
2022-08-28T07:38:17.898Z,19
2022-08-28T07:40:17.937Z,17
2022-08-28T07:43:17.918Z,18
2022-08-28T07:45:17.892Z,18
2022-08-28T07:48:19.931Z,15
2022-08-28T07:51:17.881Z,19
2022-08-28T07:53:17.922Z,18
2022-08-28T07:56:17.882Z,17
2022-08-28T07:59:19.140Z,22
2022-08-28T08:02:17.874Z,18
2022-08-28T08:04:17.925Z,15
2022-08-28T08:07:17.872Z,17
2022-08-28T08:09:17.909Z,20
2022-08-28T08:12:17.887Z,20
2022-08-28T08:14:17.927Z,16
2022-08-28T08:17:17.880Z,21
2022-08-28T08:19:17.913Z,20
2022-08-28T08:21:17.892Z,21
2022-08-28T08:24:20.082Z,19
2022-08-28T08:26:17.907Z,21
2022-08-28T08:29:17.921Z,22
2022-08-28T08:32:17.896Z,27
2022-08-28T08:34:17.934Z,22
2022-08-28T08:36:17.918Z,18
2022-08-28T08:38:17.907Z,17
2022-08-28T08:41:17.916Z,23
2022-08-28T08:44:17.917Z,21
2022-08-28T08:47:17.909Z,22
2022-08-28T08:50:17.906Z,21
2022-08-28T08:52:17.935Z,20
2022-08-28T08:55:17.919Z,19
2022-08-28T08:58:17.926Z,21
2022-08-28T09:01:18.006Z,20
2022-08-28T09:04:21.448Z,22
2022-08-28T09:06:17.936Z,18
2022-08-28T09:09:17.950Z,23
2022-08-28T09:12:17.933Z,23
2022-08-28T09:14:21.076Z,23
2022-08-28T09:17:17.935Z,22
2022-08-28T09:19:17.920Z,22
2022-08-28T09:22:17.940Z,19
2022-08-28T09:24:17.920Z,20
2022-08-28T09:26:50.436Z,23
2022-08-28T09:29:17.944Z,21
2022-08-28T09:32:17.931Z,23
2022-08-28T09:34:17.956Z,23
2022-08-28T09:36:17.949Z,22
2022-08-28T09:39:17.941Z,19
2022-08-28T09:41:17.933Z,24
2022-08-28T09:44:17.957Z,23
2022-08-28T09:46:18.008Z,24
2022-08-28T09:49:17.967Z,24
2022-08-28T09:51:17.950Z,23
2022-08-28T09:54:17.949Z,20
2022-08-28T09:57:17.978Z,27
2022-08-28T10:00:17.959Z,23
2022-08-28T10:02:17.947Z,22
2022-08-28T10:05:17.924Z,22
2022-08-28T10:07:17.960Z,27
2022-08-28T10:10:18.002Z,22
2022-08-28T10:12:17.992Z,21
2022-08-28T10:15:17.935Z,26
2022-08-28T10:18:17.929Z,21
2022-08-28T10:20:17.938Z,23
2022-08-28T10:23:17.949Z,27
2022-08-28T10:26:17.943Z,24
2022-08-28T10:29:17.938Z,22
2022-08-28T10:32:17.941Z,23
2022-08-28T10:34:17.935Z,25
2022-08-28T10:37:17.938Z,22
2022-08-28T10:39:17.912Z,27
2022-08-28T10:42:17.942Z,22
2022-08-28T10:44:17.915Z,23
2022-08-28T10:46:18.017Z,19
2022-08-28T10:49:17.934Z,22
2022-08-28T10:52:17.948Z,21
2022-08-28T10:55:49.946Z,20
2022-08-28T10:57:18.000Z,21
2022-08-28T11:00:17.950Z,22
2022-08-28T11:03:33.799Z,23
2022-08-28T11:05:17.976Z,21
2022-08-28T11:08:17.988Z,23
2022-08-28T11:11:17.975Z,21
2022-08-28T11:13:17.984Z,20
2022-08-28T11:16:18.011Z,22
2022-08-28T11:18:17.984Z,23
2022-08-28T11:20:19.339Z,21
2022-08-28T11:23:17.985Z,21
2022-08-28T11:25:17.959Z,22
2022-08-28T11:28:17.988Z,21
2022-08-28T11:31:19.214Z,20
2022-08-28T11:33:17.997Z,20
2022-08-28T11:36:17.974Z,19
2022-08-28T11:38:20.048Z,19
2022-08-28T11:40:18.080Z,19
2022-08-28T11:43:18.025Z,19
2022-08-28T11:46:20.999Z,23
2022-08-28T11:49:17.956Z,22
2022-08-28T11:51:17.997Z,21
2022-08-28T11:53:33.654Z,18
2022-08-28T11:56:21.660Z,17
2022-08-28T11:58:18.013Z,21
2022-08-28T12:01:18.016Z,20
2022-08-28T12:04:18.052Z,18
2022-08-28T12:07:17.965Z,23
2022-08-28T12:10:50.440Z,19
2022-08-28T12:13:17.957Z,21
2022-08-28T12:16:18.033Z,20
2022-08-28T12:18:17.989Z,17
2022-08-28T12:20:18.149Z,15
2022-08-28T12:23:17.965Z,19
2022-08-28T12:25:17.990Z,23
2022-08-28T12:28:17.983Z,20
2022-08-28T12:31:18.081Z,17
2022-08-28T12:33:17.991Z,18
2022-08-28T12:35:18.023Z,20
2022-08-28T12:38:18.001Z,19
2022-08-28T12:41:18.017Z,19
2022-08-28T12:44:17.969Z,18
2022-08-28T12:46:19.179Z,20
2022-08-28T12:49:17.999Z,17
2022-08-28T12:51:17.986Z,21
2022-08-28T12:54:17.989Z,18
2022-08-28T12:56:18.001Z,19
2022-08-28T12:58:18.000Z,19
2022-08-28T13:00:18.076Z,17
2022-08-28T13:03:17.986Z,19
2022-08-28T13:05:17.995Z,18
2022-08-28T13:08:18.028Z,21
2022-08-28T13:10:18.028Z,17
2022-08-28T13:13:18.254Z,17
2022-08-28T13:15:24.206Z,17
2022-08-28T13:18:18.001Z,19
2022-08-28T13:20:18.022Z,18
2022-08-28T13:22:18.035Z,20
2022-08-28T13:25:18.025Z,19
2022-08-28T13:27:18.024Z,17
2022-08-28T13:33:18.335Z,20
2022-08-28T13:36:18.065Z,21
2022-08-28T13:39:18.003Z,18
2022-08-28T13:41:18.052Z,15
2022-08-28T13:44:18.076Z,18
2022-08-28T13:47:18.004Z,20
2022-08-28T13:49:18.087Z,18
2022-08-28T13:52:17.999Z,15
2022-08-28T13:54:18.036Z,16
2022-08-28T13:56:18.033Z,16
2022-08-28T13:59:18.027Z,15
2022-08-28T14:01:18.085Z,18
2022-08-28T14:04:18.050Z,19
2022-08-28T14:07:18.019Z,20
2022-08-28T14:10:18.035Z,16
2022-08-28T14:13:18.041Z,14
2022-08-28T14:16:18.030Z,20
2022-08-28T14:18:18.053Z,14
2022-08-28T14:21:18.076Z,16
2022-08-28T14:24:18.051Z,16
2022-08-28T14:26:18.038Z,17
2022-08-28T14:28:18.059Z,17
2022-08-28T14:31:18.130Z,19
2022-08-28T14:33:18.062Z,20
2022-08-28T14:35:18.085Z,17
2022-08-28T14:38:18.064Z,15
2022-08-28T14:40:18.059Z,19
2022-08-28T14:43:49.961Z,19
2022-08-28T14:45:18.069Z,19
2022-08-28T14:47:18.037Z,16
2022-08-28T14:50:18.035Z,17
2022-08-28T14:52:18.043Z,18
2022-08-28T14:55:18.783Z,25
2022-08-28T14:58:18.048Z,20
2022-08-28T15:00:18.039Z,18
2022-08-28T15:02:18.070Z,17
2022-08-28T15:05:18.046Z,16
2022-08-28T15:07:18.082Z,18
2022-08-28T15:10:18.423Z,17
2022-08-28T15:13:18.116Z,17
2022-08-28T15:16:18.067Z,17
2022-08-28T15:18:18.074Z,15
2022-08-28T15:21:18.099Z,16
2022-08-28T15:24:18.044Z,17
2022-08-28T15:26:18.070Z,17
2022-08-28T15:29:18.063Z,15
2022-08-28T15:32:18.074Z,18
2022-08-28T15:35:18.109Z,21
2022-08-28T15:38:18.058Z,17
2022-08-28T15:41:18.049Z,19
2022-08-28T15:44:18.046Z,19
2022-08-28T15:46:18.095Z,20
2022-08-28T15:49:18.061Z,19
2022-08-28T15:52:18.058Z,16
2022-08-28T15:54:18.086Z,15
2022-08-28T15:57:18.089Z,17
2022-08-28T16:00:18.103Z,18
2022-08-28T16:03:18.073Z,16
2022-08-28T16:06:18.046Z,18
2022-08-28T16:08:18.066Z,17
2022-08-28T16:11:18.087Z,18
2022-08-28T16:13:18.085Z,16
2022-08-28T16:16:18.157Z,20
2022-08-28T16:19:18.063Z,20
2022-08-28T16:21:18.096Z,17
2022-08-28T16:24:18.081Z,18
2022-08-28T16:26:18.085Z,17
2022-08-28T16:29:18.103Z,16
2022-08-28T16:32:18.088Z,17
2022-08-28T16:34:19.528Z,17
2022-08-28T16:36:18.109Z,18
2022-08-28T16:39:18.083Z,20
2022-08-28T16:41:18.110Z,18
2022-08-28T16:44:18.089Z,16
2022-08-28T16:46:18.101Z,19
2022-08-28T16:49:18.107Z,18
2022-08-28T16:52:18.172Z,16
2022-08-28T16:54:18.201Z,18
2022-08-28T16:57:18.121Z,19
2022-08-28T16:59:18.131Z,17
2022-08-28T17:02:18.201Z,18
2022-08-28T17:05:18.101Z,17
2022-08-28T17:08:18.098Z,19
2022-08-28T17:10:18.084Z,17
2022-08-28T17:13:18.125Z,17
2022-08-28T17:15:18.124Z,16
2022-08-28T17:18:18.136Z,19
2022-08-28T17:20:18.161Z,17
2022-08-28T17:23:18.140Z,17
2022-08-28T17:26:18.149Z,15
2022-08-28T17:29:18.120Z,17
2022-08-28T17:31:18.177Z,16
2022-08-28T17:33:18.138Z,18
2022-08-28T17:35:18.107Z,20
2022-08-28T17:38:18.122Z,18
2022-08-28T17:40:18.303Z,20
2022-08-28T17:43:18.144Z,19
2022-08-28T17:46:18.193Z,18
2022-08-28T17:49:18.102Z,19
2022-08-28T17:51:19.511Z,20
2022-08-28T17:53:18.154Z,18
2022-08-28T17:56:18.094Z,18
2022-08-28T17:58:18.121Z,19
2022-08-28T18:01:18.204Z,20
2022-08-28T18:03:18.147Z,16
2022-08-28T18:06:18.127Z,19
2022-08-28T18:09:18.132Z,19
2022-08-28T18:12:18.122Z,21
2022-08-28T18:15:18.143Z,17
2022-08-28T18:18:18.138Z,19
2022-08-28T18:20:18.131Z,19
2022-08-28T18:22:18.179Z,24
2022-08-28T18:25:18.138Z,19
2022-08-28T18:28:21.909Z,23
2022-08-28T18:30:18.187Z,22
2022-08-28T18:33:18.142Z,18
2022-08-28T18:36:18.189Z,20
2022-08-28T18:39:18.918Z,19
2022-08-28T18:42:18.162Z,20
2022-08-28T18:45:18.111Z,21
2022-08-28T18:47:18.170Z,19
2022-08-28T18:50:18.192Z,20
2022-08-28T18:53:18.148Z,20
2022-08-28T18:56:18.142Z,20
2022-08-28T18:58:18.136Z,20
2022-08-28T19:01:18.157Z,19
2022-08-28T19:03:18.130Z,23
2022-08-28T19:05:18.140Z,20
2022-08-28T19:08:18.192Z,20
2022-08-28T19:11:18.140Z,19
2022-08-28T19:13:18.147Z,22
2022-08-28T19:16:18.267Z,22
2022-08-28T19:18:18.207Z,20
2022-08-28T19:21:18.199Z,20
2022-08-28T19:23:18.191Z,21
2022-08-28T19:25:22.347Z,17
2022-08-28T19:28:18.198Z,21
2022-08-28T19:30:50.465Z,17
2022-08-28T19:33:18.195Z,20
2022-08-28T19:36:18.209Z,18
2022-08-28T19:38:18.207Z,18
2022-08-28T19:40:18.234Z,19
2022-08-28T19:42:18.232Z,19
2022-08-28T19:44:18.219Z,20
2022-08-28T19:47:18.243Z,22
2022-08-28T19:50:18.204Z,18
2022-08-28T19:53:18.210Z,19
2022-08-28T19:55:18.259Z,22
2022-08-28T19:57:18.208Z,19
2022-08-28T19:59:18.251Z,19
2022-08-28T20:02:18.238Z,21
2022-08-28T20:04:18.238Z,19
2022-08-28T20:07:18.222Z,20
2022-08-28T20:10:18.228Z,20
2022-08-28T20:13:18.209Z,23
2022-08-28T20:15:18.250Z,22
2022-08-28T20:19:18.291Z,19
2022-08-28T20:22:18.220Z,19
2022-08-28T20:24:18.231Z,20
2022-08-28T20:27:18.321Z,20
2022-08-28T20:30:18.244Z,17
2022-08-28T20:33:18.223Z,21
2022-08-28T20:36:20.970Z,20
2022-08-28T20:38:18.235Z,23
2022-08-28T20:41:18.246Z,19
2022-08-28T20:43:18.246Z,19
2022-08-28T20:46:18.309Z,17
2022-08-28T20:49:18.209Z,17
2022-08-28T20:51:18.249Z,20
2022-08-28T20:54:18.230Z,19
2022-08-28T20:57:18.228Z,17
2022-08-28T20:59:18.239Z,18
2022-08-28T21:02:18.224Z,19
2022-08-28T21:05:18.313Z,21
2022-08-28T21:07:18.249Z,18
2022-08-28T21:09:18.245Z,21
2022-08-28T21:11:18.281Z,19
2022-08-28T21:14:18.214Z,20
2022-08-28T21:16:18.255Z,19
2022-08-28T21:19:18.233Z,23
2022-08-28T21:21:18.272Z,21
2022-08-28T21:24:18.244Z,22
2022-08-28T21:27:18.434Z,20
2022-08-28T21:30:18.231Z,19
2022-08-28T21:33:18.230Z,19
2022-08-28T21:38:18.645Z,22
2022-08-28T21:41:18.260Z,22
2022-08-28T21:43:18.301Z,21
2022-08-28T21:46:18.640Z,19
2022-08-28T21:49:18.275Z,22
2022-08-28T21:52:18.338Z,18
2022-08-28T21:54:18.281Z,19
2022-08-28T21:57:18.284Z,18
2022-08-28T21:59:18.311Z,20
2022-08-28T22:02:18.321Z,18
2022-08-28T22:04:18.275Z,19
2022-08-28T22:06:18.345Z,19
2022-08-28T22:09:18.262Z,20
2022-08-28T22:11:21.081Z,17
2022-08-28T22:13:18.317Z,21
2022-08-28T22:16:18.331Z,19
2022-08-28T22:19:18.307Z,18
2022-08-28T22:22:18.455Z,17
2022-08-28T22:25:18.291Z,19
2022-08-28T22:28:18.262Z,18
2022-08-28T22:30:18.332Z,18
2022-08-28T22:33:18.258Z,19
2022-08-28T22:35:18.314Z,17
2022-08-28T22:38:18.292Z,19
2022-08-28T22:40:18.395Z,19
2022-08-28T22:43:18.296Z,20
2022-08-28T22:45:18.331Z,18
2022-08-28T22:47:18.935Z,19
2022-08-28T22:50:18.305Z,17
2022-08-28T22:53:18.269Z,18
2022-08-28T22:56:18.271Z,21
2022-08-28T22:58:18.288Z,20
2022-08-28T23:00:18.292Z,17
2022-08-28T23:02:18.332Z,21
2022-08-28T23:04:18.375Z,16
2022-08-28T23:07:18.295Z,22
2022-08-28T23:09:18.309Z,17
2022-08-28T23:12:18.333Z,15
2022-08-28T23:15:18.284Z,15
2022-08-28T23:17:18.667Z,16
2022-08-28T23:20:18.307Z,15
2022-08-28T23:23:18.295Z,16
2022-08-28T23:25:18.327Z,13
2022-08-28T23:28:18.518Z,13
2022-08-28T23:31:18.361Z,14
2022-08-28T23:33:21.690Z,13
2022-08-28T23:36:18.284Z,14
2022-08-28T23:38:18.345Z,17
2022-08-28T23:41:18.338Z,19
2022-08-28T23:44:18.333Z,12
2022-08-28T23:46:18.406Z,18
2022-08-28T23:49:18.303Z,15
2022-08-28T23:52:18.308Z,16
2022-08-28T23:54:18.322Z,15
2022-08-28T23:57:18.329Z,15
